Ilyas Efendiyev — 9HES8 — position and weather

sailwx.info

Track history (hours):
 
Tides and Currents Weather Stations Pressure Air Temp Water Temp Dewpoint Dewpoint Depression Visibility Wind Speed Wind Dir Waves Ship Positions

Ilyas Efendiyev

Last reported at 2018-Jan-11 00:37 UTC. Time now 2018-Jan-20 03:47 UTC.
Position N 44°31' E 012°29'.
Warning: this ship's position is 9 days out of date.

Length 140 m; draft 4.6 m.

Type: Cargo ship. MMSI: 215901000.

Date/timePositionNaut miles runAvg speedWind from/ knotsBaromVisibWave heightAir tempDewpointWater temp
2018-Jan-11 00:37N 44°31' E 012°29'0 0.0
2018-Jan-11 00:22N 44°31' E 012°29'0 0.0
2018-Jan-10 23:53N 44°31' E 012°29'0 0.0
2018-Jan-10 08:02N 44°31' E 012°29'0 0.1
2018-Jan-10 07:59N 44°31' E 012°29'0 0.0
2018-Jan-09 18:53N 44°31' E 012°28'  
2018-Jan-06 03:10N 36°24' E 022°44'2 9.2
2018-Jan-06 02:57N 36°24' E 022°46'4 8.8
2018-Jan-06 02:30N 36°25' E 022°51'5 9.0
2018-Jan-06 02:00N 36°26' E 022°56'40 8.0
2018-Jan-05 21:04N 36°52' E 023°33'1 9.4
2018-Jan-05 20:55N 36°54' E 023°34'8 9.6
2018-Jan-05 20:05N 37°00' E 023°40'15 9.4
2018-Jan-05 18:31N 37°13' E 023°50'2 9.3
2018-Jan-05 18:15N 37°15' E 023°51'10 9.3
2018-Jan-05 17:14N 37°23' E 023°58'2 9.4
2018-Jan-05 16:59N 37°25' E 023°59'10 9.3
2018-Jan-05 15:53N 37°33' E 024°06'4 9.7
2018-Jan-05 15:29N 37°37' E 024°09'5 9.6
2018-Jan-05 15:00N 37°41' E 024°12'5 9.4
2018-Jan-05 14:27N 37°45' E 024°16'12 9.1
2018-Jan-05 13:10N 37°51' E 024°28'3 9.6
2018-Jan-05 12:52N 37°52' E 024°31'  
2018-Jan-01 21:01N 43°06' E 029°44'0 8.6
2018-Jan-01 20:59N 43°06' E 029°44'29 9.1
2018-Jan-01 17:47N 43°35' E 029°54'4 9.1
2018-Jan-01 17:23N 43°38' E 029°55'29 9.0
2018-Jan-01 14:09N 44°06' E 030°06'1 9.1
2018-Jan-01 14:00N 44°08' E 030°06'5 9.0
2018-Jan-01 13:29N 44°12' E 030°08'  
Track history (hours):
 
Tides and Currents Weather Stations Pressure Air Temp Water Temp Dewpoint Dewpoint Depression Visibility Wind Speed Wind Dir Waves Ship Positions

Ilyas Efendiyev

Last reported at 2018-Jan-11 00:37 UTC. Time now 2018-Jan-20 03:47 UTC.
Position N 44°31' E 012°29'.
Warning: this ship's position is 9 days out of date.

Length 140 m; draft 4.6 m.

Type: Cargo ship. MMSI: 215901000.

Date/timePositionNaut miles runAvg speedWind from/ knotsBaromVisibWave heightAir tempDewpointWater temp
2018-Jan-11 00:37N 44°31' E 012°29'0 0.0
2018-Jan-11 00:22N 44°31' E 012°29'0 0.0
2018-Jan-10 23:53N 44°31' E 012°29'0 0.0
2018-Jan-10 08:02N 44°31' E 012°29'0 0.1
2018-Jan-10 07:59N 44°31' E 012°29'0 0.0
2018-Jan-09 18:53N 44°31' E 012°28'  
2018-Jan-06 03:10N 36°24' E 022°44'2 9.2
2018-Jan-06 02:57N 36°24' E 022°46'4 8.8
2018-Jan-06 02:30N 36°25' E 022°51'5 9.0
2018-Jan-06 02:00N 36°26' E 022°56'40 8.0
2018-Jan-05 21:04N 36°52' E 023°33'1 9.4
2018-Jan-05 20:55N 36°54' E 023°34'8 9.6
2018-Jan-05 20:05N 37°00' E 023°40'15 9.4
2018-Jan-05 18:31N 37°13' E 023°50'2 9.3
2018-Jan-05 18:15N 37°15' E 023°51'10 9.3
2018-Jan-05 17:14N 37°23' E 023°58'2 9.4
2018-Jan-05 16:59N 37°25' E 023°59'10 9.3
2018-Jan-05 15:53N 37°33' E 024°06'4 9.7
2018-Jan-05 15:29N 37°37' E 024°09'5 9.6
2018-Jan-05 15:00N 37°41' E 024°12'5 9.4
2018-Jan-05 14:27N 37°45' E 024°16'12 9.1
2018-Jan-05 13:10N 37°51' E 024°28'3 9.6
2018-Jan-05 12:52N 37°52' E 024°31'  
2018-Jan-01 21:01N 43°06' E 029°44'0 8.6
2018-Jan-01 20:59N 43°06' E 029°44'29 9.1
2018-Jan-01 17:47N 43°35' E 029°54'4 9.1
2018-Jan-01 17:23N 43°38' E 029°55'29 9.0
2018-Jan-01 14:09N 44°06' E 030°06'1 9.1
2018-Jan-01 14:00N 44°08' E 030°06'5 9.0
2018-Jan-01 13:29N 44°12' E 030°08'  

Dump ship's entire track history